Time;durP1;ratioP1;P1;durP2;ratioP2;P2;SDS_P1;SDS_P2;PMS_P1;PMS_P2;Temp;Humidity;BMP_temperature;BMP_pressure;BME280_temperature;BME280_humidity;BME280_pressure;Samples;Min_cycle;Max_cycle;Signal;HPM_P1;HPM_P2
2021/09/09 00:00:07;;;;;;;8.63;2.45;;;29.80;90.60;;;;;;5026854;28;20043;-52
2021/09/09 00:02:33;;;;;;;5.90;1.98;;;29.70;90.60;;;;;;5027168;28;20025;-51
2021/09/09 00:05:00;;;;;;;9.00;2.25;;;29.70;90.60;;;;;;5026798;28;20014;-50
2021/09/09 00:07:27;;;;;;;4.05;2.25;;;29.70;90.60;;;;;;5026933;28;20026;-49
2021/09/09 00:09:53;;;;;;;5.88;2.00;;;29.70;90.50;;;;;;5026736;28;20089;-48
2021/09/09 00:12:20;;;;;;;6.30;1.70;;;29.70;90.60;;;;;;5026815;28;20030;-47
2021/09/09 00:14:47;;;;;;;4.30;1.60;;;29.60;90.60;;;;;;5026547;28;20089;-49
2021/09/09 00:17:13;;;;;;;4.38;2.50;;;29.60;90.60;;;;;;5026731;28;20094;-47
2021/09/09 00:19:40;;;;;;;9.38;3.60;;;29.60;90.70;;;;;;5026539;28;20013;-48
2021/09/09 00:22:07;;;;;;;8.15;2.85;;;29.60;90.70;;;;;;5026494;28;20022;-51
2021/09/09 00:24:33;;;;;;;5.03;3.33;;;29.60;90.50;;;;;;5026532;28;20259;-45
2021/09/09 00:27:00;;;;;;;7.88;2.85;;;29.50;90.50;;;;;;5026530;28;20209;-46
2021/09/09 00:29:26;;;;;;;9.60;2.70;;;29.50;90.60;;;;;;5026424;28;20022;-49
2021/09/09 00:31:53;;;;;;;7.22;3.05;;;29.50;90.60;;;;;;5026385;28;20025;-52
2021/09/09 00:34:20;;;;;;;7.80;2.95;;;29.50;90.70;;;;;;5025126;28;20336;-45
2021/09/09 00:36:46;;;;;;;11.93;3.10;;;29.50;90.90;;;;;;5026107;28;20040;-49
2021/09/09 00:39:14;;;;;;;8.40;4.32;;;29.50;90.90;;;;;;5026456;28;20072;-53
2021/09/09 00:41:41;;;;;;;7.60;3.80;;;29.40;91.10;;;;;;5026227;28;20309;-48
2021/09/09 00:44:23;;;;;;;7.10;3.22;;;29.40;91.10;;;;;;5025962;28;20055;-58
2021/09/09 00:47:08;;;;;;;10.05;3.13;;;29.50;91.20;;;;;;5026006;28;20025;-51
2021/09/09 00:49:41;;;;;;;6.57;3.22;;;29.40;91.10;;;;;;5025824;28;20064;-49
2021/09/09 00:52:13;;;;;;;9.90;3.20;;;29.40;91.20;;;;;;5026022;28;20026;-51
2021/09/09 00:54:44;;;;;;;;;;;29.40;91.10;;;;;;5026073;28;20314;-49
2021/09/09 00:57:14;;;;;;;9.57;3.22;;;29.40;91.10;;;;;;5025701;28;19912;-53
2021/09/09 00:59:41;;;;;;;5.28;3.38;;;29.40;91.40;;;;;;5025632;28;20037;-49
2021/09/09 01:02:08;;;;;;;6.63;3.78;;;29.30;91.10;;;;;;5025685;28;20022;-45
2021/09/09 01:04:34;;;;;;;8.30;3.15;;;29.30;91.10;;;;;;5025724;28;20030;-51
2021/09/09 01:07:01;;;;;;;6.88;2.85;;;29.30;90.90;;;;;;5026064;28;20298;-49
2021/09/09 01:09:28;;;;;;;6.40;3.20;;;29.30;91.00;;;;;;5025399;28;20093;-50
2021/09/09 01:11:55;;;;;;;9.30;2.65;;;29.30;90.70;;;;;;5026244;28;20076;-52
2021/09/09 01:14:23;;;;;;;7.32;2.90;;;29.30;90.70;;;;;;5025598;28;20026;-43
2021/09/09 01:16:50;;;;;;;6.53;2.53;;;29.30;90.70;;;;;;5025214;28;20321;-52
2021/09/09 01:19:18;;;;;;;7.55;2.70;;;29.30;90.70;;;;;;5025322;28;20104;-53
2021/09/09 01:21:45;;;;;;;5.65;2.30;;;29.30;90.70;;;;;;5025629;28;20065;-47
2021/09/09 01:24:17;;;;;;;7.93;2.53;;;29.20;90.60;;;;;;5024245;28;20028;-48
2021/09/09 01:27:10;;;;;;;8.38;2.10;;;29.20;90.50;;;;;;5025044;28;20026;-51
2021/09/09 01:29:40;;;;;;;4.20;1.50;;;29.00;90.70;;;;;;5023436;28;20100;-50
2021/09/09 01:32:08;;;;;;;6.03;1.60;;;28.90;90.60;;;;;;5025117;28;20060;-55
2021/09/09 01:34:35;;;;;;;4.63;1.77;;;28.90;90.80;;;;;;5024841;28;20018;-47
2021/09/09 01:37:03;;;;;;;4.25;1.50;;;28.80;90.80;;;;;;5024177;28;20049;-48
2021/09/09 01:39:31;;;;;;;5.72;1.80;;;28.80;91.10;;;;;;5024530;28;20306;-46
2021/09/09 01:41:59;;;;;;;6.22;2.33;;;28.70;91.40;;;;;;5024757;28;20022;-43
2021/09/09 01:44:28;;;;;;;5.80;2.15;;;28.70;91.40;;;;;;5024761;28;20018;-46
2021/09/09 01:46:55;;;;;;;6.80;2.33;;;28.60;91.50;;;;;;5018806;28;20089;-46
2021/09/09 01:49:23;;;;;;;4.85;1.80;;;28.60;91.50;;;;;;5004988;28;20018;-52
2021/09/09 01:51:49;;;;;;;7.93;1.98;;;28.60;91.50;;;;;;5016656;28;20045;-44
2021/09/09 01:54:16;;;;;;;4.28;1.70;;;28.60;91.60;;;;;;5024499;28;20040;-45
2021/09/09 01:56:44;;;;;;;5.82;1.83;;;28.60;91.60;;;;;;5024418;28;20049;-44
2021/09/09 01:59:11;;;;;;;7.05;1.77;;;28.50;91.60;;;;;;5024533;28;20389;-46
2021/09/09 02:01:39;;;;;;;8.30;1.95;;;28.50;91.50;;;;;;5024105;28;20025;-51
2021/09/09 02:04:06;;;;;;;6.18;1.88;;;28.50;91.60;;;;;;5024479;28;20018;-50
2021/09/09 02:06:34;;;;;;;5.30;1.50;;;28.50;91.50;;;;;;5024371;28;20026;-50
2021/09/09 02:09:02;;;;;;;10.15;1.58;;;28.50;91.40;;;;;;5039667;28;20096;-46
2021/09/09 02:11:31;;;;;;;10.65;2.10;;;28.40;91.60;;;;;;5008514;28;20045;-48
2021/09/09 02:13:58;;;;;;;12.73;2.00;;;28.40;91.40;;;;;;5004773;28;20029;-47
2021/09/09 02:16:25;;;;;;;48.17;5.20;;;28.50;91.50;;;;;;5019284;28;20032;-48
2021/09/09 02:18:52;;;;;;;26.50;3.30;;;28.50;91.40;;;;;;5024111;28;20025;-50
2021/09/09 02:21:19;;;;;;;27.15;3.30;;;28.50;91.40;;;;;;5022250;28;20026;-48
2021/09/09 02:23:46;;;;;;;22.95;2.92;;;28.50;91.40;;;;;;5004769;28;20149;-47
2021/09/09 02:26:13;;;;;;;21.00;2.28;;;28.50;91.40;;;;;;5004425;28;20081;-49
2021/09/09 02:28:39;;;;;;;11.32;2.08;;;28.50;91.40;;;;;;5005020;28;20081;-43
2021/09/09 02:31:07;;;;;;;6.22;1.77;;;28.40;91.30;;;;;;5004532;28;20026;-45
2021/09/09 02:33:33;;;;;;;8.15;1.85;;;28.40;91.30;;;;;;5004867;28;20022;-47
2021/09/09 02:36:00;;;;;;;4.38;1.40;;;28.40;91.30;;;;;;5004304;28;20081;-48
2021/09/09 02:38:27;;;;;;;3.65;1.23;;;28.40;91.30;;;;;;5004092;28;20046;-47
2021/09/09 02:40:53;;;;;;;5.40;1.33;;;28.40;91.40;;;;;;5004442;28;20018;-45
2021/09/09 02:43:20;;;;;;;6.78;1.52;;;28.40;91.40;;;;;;5004622;28;20026;-48
2021/09/09 02:45:47;;;;;;;4.30;1.25;;;28.40;91.20;;;;;;5004522;28;20033;-51
2021/09/09 02:48:14;;;;;;;8.32;1.30;;;28.40;91.20;;;;;;5004985;28;20303;-45
2021/09/09 02:50:41;;;;;;;3.90;1.00;;;28.30;91.50;;;;;;5004290;28;20033;-46
2021/09/09 02:53:07;;;;;;;4.88;0.98;;;28.30;91.50;;;;;;5004655;28;20026;-47
2021/09/09 02:55:34;;;;;;;3.35;1.05;;;28.30;91.40;;;;;;5019024;28;20026;-52
2021/09/09 02:58:01;;;;;;;7.65;1.45;;;28.30;91.30;;;;;;5004406;28;20214;-50
2021/09/09 03:00:27;;;;;;;6.38;1.85;;;28.20;91.40;;;;;;5007630;28;20101;-52
2021/09/09 03:02:54;;;;;;;7.45;2.15;;;28.20;91.40;;;;;;5008078;28;20022;-51
2021/09/09 03:05:20;;;;;;;8.48;2.00;;;28.20;91.40;;;;;;5008014;28;20038;-45
2021/09/09 03:07:47;;;;;;;12.23;2.30;;;28.20;91.40;;;;;;5023484;28;20030;-45
2021/09/09 03:10:14;;;;;;;22.58;3.90;;;28.20;91.60;;;;;;5007928;28;20026;-50
2021/09/09 03:12:40;;;;;;;24.60;4.03;;;28.20;91.60;;;;;;5008163;28;20026;-47
2021/09/09 03:15:08;;;;;;;18.27;3.05;;;28.30;91.50;;;;;;5022993;28;20234;-50
2021/09/09 03:17:35;;;;;;;17.17;2.70;;;28.40;91.50;;;;;;5008024;28;20037;-45
2021/09/09 03:20:02;;;;;;;12.75;2.65;;;28.40;91.50;;;;;;5007727;28;20022;-50
2021/09/09 03:22:29;;;;;;;20.05;3.15;;;28.40;91.60;;;;;;5007933;28;20311;-46
2021/09/09 03:24:56;;;;;;;20.85;2.83;;;28.40;91.70;;;;;;5007325;28;20030;-48
2021/09/09 03:27:22;;;;;;;13.73;2.50;;;28.40;92.00;;;;;;5018307;28;20038;-50
2021/09/09 03:29:49;;;;;;;22.73;2.63;;;28.40;91.70;;;;;;5024080;28;20199;-50
2021/09/09 03:32:16;;;;;;;14.48;2.67;;;28.40;91.70;;;;;;5042622;28;20026;-48
2021/09/09 03:34:42;;;;;;;19.83;2.35;;;28.40;91.80;;;;;;5027083;28;20022;-46
2021/09/09 03:37:09;;;;;;;14.52;2.25;;;28.50;91.70;;;;;;5026921;28;20041;-45
2021/09/09 03:39:35;;;;;;;15.60;2.30;;;28.50;92.00;;;;;;5026851;28;20215;-46
2021/09/09 03:42:02;;;;;;;12.85;2.40;;;28.40;91.80;;;;;;5027032;28;20295;-54
2021/09/09 03:44:29;;;;;;;13.88;1.88;;;28.40;91.80;;;;;;5027012;28;20049;-46
2021/09/09 03:46:55;;;;;;;15.52;2.13;;;28.40;91.90;;;;;;5026890;28;20056;-46
2021/09/09 03:49:22;;;;;;;11.93;2.20;;;28.40;92.00;;;;;;5026793;28;20053;-50
2021/09/09 03:51:48;;;;;;;11.15;4.22;;;28.40;92.20;;;;;;5027036;28;20029;-50
2021/09/09 03:54:15;;;;;;;13.32;4.05;;;28.40;91.90;;;;;;5026641;28;20060;-50
2021/09/09 03:56:41;;;;;;;11.98;5.07;;;28.30;91.90;;;;;;5026960;28;20014;-46
2021/09/09 03:59:08;;;;;;;13.05;5.32;;;28.40;92.00;;;;;;5026598;28;20022;-52
2021/09/09 04:37:51;;;;;;;5.97;1.63;;;27.70;92.60;;;;;;5100094;28;20427;-50
2021/09/09 04:40:17;;;;;;;6.82;2.30;;;27.80;92.50;;;;;;5101406;28;20020;-45
2021/09/09 04:42:44;;;;;;;5.65;1.98;;;27.80;92.50;;;;;;5101408;28;20020;-49
2021/09/09 04:45:11;;;;;;;3.47;1.70;;;27.90;92.30;;;;;;5101271;28;20300;-45
2021/09/09 04:47:37;;;;;;;8.25;1.73;;;27.90;92.20;;;;;;5101854;28;20050;-47
2021/09/09 04:50:05;;;;;;;5.70;2.00;;;28.00;92.20;;;;;;5101355;28;20052;-43
2021/09/09 04:52:31;;;;;;;4.13;1.48;;;28.00;92.20;;;;;;5101636;28;20043;-42
2021/09/09 04:54:58;;;;;;;8.48;1.50;;;28.10;92.10;;;;;;5101247;28;20209;-44
2021/09/09 04:57:25;;;;;;;4.70;1.30;;;28.10;92.10;;;;;;5101555;28;20034;-50
2021/09/09 04:59:51;;;;;;;3.22;1.73;;;28.10;92.10;;;;;;5083199;28;20272;-45
2021/09/09 05:02:18;;;;;;;5.43;1.85;;;28.10;92.10;;;;;;5101522;28;20027;-44
2021/09/09 05:04:44;;;;;;;5.43;1.63;;;28.10;92.10;;;;;;5101019;28;20025;-49
2021/09/09 05:07:11;;;;;;;6.85;1.73;;;28.10;92.00;;;;;;5099732;28;20038;-51
2021/09/09 05:09:37;;;;;;;4.40;1.50;;;28.10;92.00;;;;;;5100839;28;20028;-51
2021/09/09 05:12:04;;;;;;;5.47;1.40;;;28.10;91.90;;;;;;5101399;28;20035;-45
2021/09/09 05:14:31;;;;;;;8.93;1.42;;;28.10;91.90;;;;;;5100840;28;20020;-43
2021/09/09 05:16:57;;;;;;;5.10;1.95;;;28.10;91.80;;;;;;5100931;28;20028;-45
2021/09/09 05:19:24;;;;;;;5.00;1.63;;;28.10;91.80;;;;;;5100739;28;20020;-41
2021/09/09 05:21:50;;;;;;;6.80;1.70;;;28.10;91.80;;;;;;5101021;28;20058;-45
2021/09/09 05:24:17;;;;;;;4.85;1.50;;;28.20;91.80;;;;;;5100440;28;20083;-48
2021/09/09 05:26:44;;;;;;;6.30;1.17;;;28.10;91.60;;;;;;5100854;28;20024;-47
2021/09/09 05:29:10;;;;;;;3.90;0.85;;;28.10;91.70;;;;;;5100606;28;20027;-48
2021/09/09 05:31:37;;;;;;;6.20;0.90;;;28.10;91.60;;;;;;5100639;28;20092;-55
2021/09/09 05:34:03;;;;;;;3.60;0.77;;;28.10;91.40;;;;;;5100456;28;20028;-48
2021/09/09 05:36:30;;;;;;;3.13;0.60;;;28.10;91.40;;;;;;5100260;28;20217;-48
2021/09/09 05:38:56;;;;;;;4.55;1.15;;;28.10;91.30;;;;;;5100288;28;20027;-47
2021/09/09 05:41:23;;;;;;;2.10;0.82;;;28.00;91.30;;;;;;5100507;28;20024;-48
2021/09/09 05:43:50;;;;;;;3.00;0.90;;;28.00;91.40;;;;;;5100175;28;20016;-44
2021/09/09 05:46:16;;;;;;;3.63;0.70;;;28.00;91.40;;;;;;5100292;28;20027;-54
2021/09/09 05:48:43;;;;;;;3.47;0.70;;;27.90;91.40;;;;;;5089201;28;20069;-53
2021/09/09 05:51:09;;;;;;;3.83;0.60;;;28.00;91.50;;;;;;5086527;28;20035;-49
2021/09/09 05:53:36;;;;;;;1.40;0.60;;;27.90;91.50;;;;;;5086478;28;20031;-53
2021/09/09 05:56:02;;;;;;;0.98;0.60;;;27.90;91.50;;;;;;5086710;28;20029;-55
2021/09/09 05:58:29;;;;;;;3.47;0.50;;;27.90;91.60;;;;;;5086524;28;20071;-45
2021/09/09 06:00:55;;;;;;;1.95;0.70;;;27.90;91.60;;;;;;5086326;28;20021;-48
2021/09/09 06:03:25;;;;;;;4.90;0.70;;;27.90;91.60;;;;;;5086438;28;20067;-46
2021/09/09 06:05:53;;;;;;;1.17;0.63;;;27.90;91.70;;;;;;5086572;28;20271;-44
2021/09/09 06:08:20;;;;;;;1.83;0.50;;;27.90;91.90;;;;;;5086162;28;20316;-44
2021/09/09 06:10:47;;;;;;;1.45;0.55;;;27.90;91.90;;;;;;5086384;28;20035;-46
2021/09/09 06:13:13;;;;;;;1.88;0.80;;;27.80;92.00;;;;;;5086178;28;20047;-44
2021/09/09 06:15:40;;;;;;;2.17;0.65;;;27.80;92.00;;;;;;5086030;28;20074;-43
2021/09/09 06:18:06;;;;;;;2.65;0.70;;;27.80;92.00;;;;;;5086058;28;20023;-45
2021/09/09 06:20:33;;;;;;;4.70;0.73;;;27.80;91.90;;;;;;5086145;28;20220;-52
2021/09/09 06:22:59;;;;;;;4.10;0.70;;;27.80;92.00;;;;;;5085917;28;20304;-51
2021/09/09 06:25:26;;;;;;;1.70;0.88;;;27.80;91.90;;;;;;5086062;28;20032;-44
2021/09/09 06:27:53;;;;;;;1.27;0.55;;;27.80;91.90;;;;;;5086005;28;20316;-44
2021/09/09 06:30:19;;;;;;;2.08;0.55;;;27.70;91.90;;;;;;5085806;28;20055;-45
2021/09/09 06:32:46;;;;;;;2.85;0.60;;;27.70;91.90;;;;;;5085741;28;20017;-47
2021/09/09 06:35:12;;;;;;;1.15;0.50;;;27.80;91.90;;;;;;5086124;28;20024;-46
2021/09/09 06:37:39;;;;;;;2.95;0.60;;;27.70;91.80;;;;;;5085506;28;20103;-47
2021/09/09 06:40:07;;;;;;;3.50;0.60;;;27.70;91.90;;;;;;5085849;28;20042;-43
2021/09/09 06:42:34;;;;;;;2.60;0.57;;;27.70;91.80;;;;;;5086176;28;20103;-47
2021/09/09 06:45:01;;;;;;;1.85;0.50;;;27.70;91.80;;;;;;5085640;28;20012;-44
2021/09/09 06:47:28;;;;;;;3.10;0.50;;;27.70;91.80;;;;;;5085867;28;20029;-46
2021/09/09 06:49:54;;;;;;;1.15;0.43;;;27.70;91.80;;;;;;5085593;28;20017;-44
2021/09/09 06:52:21;;;;;;;0.98;0.47;;;27.70;91.70;;;;;;5085880;28;20051;-45
2021/09/09 06:54:48;;;;;;;2.28;0.45;;;27.70;91.60;;;;;;5085222;28;20020;-45
2021/09/09 06:57:14;;;;;;;3.20;0.50;;;27.70;91.70;;;;;;5085689;28;20096;-43
2021/09/09 06:59:41;;;;;;;0.80;0.40;;;27.70;91.60;;;;;;5084368;28;20194;-46
2021/09/09 07:02:08;;;;;;;3.00;0.47;;;27.70;91.60;;;;;;5085568;28;20088;-52
2021/09/09 07:04:34;;;;;;;1.00;0.32;;;27.70;91.60;;;;;;5085233;28;20204;-45
2021/09/09 07:07:01;;;;;;;1.55;0.55;;;27.70;91.50;;;;;;5085558;28;20153;-48
2021/09/09 07:09:27;;;;;;;2.05;0.50;;;27.60;91.30;;;;;;5084991;28;20039;-43
2021/09/09 07:11:54;;;;;;;3.22;0.40;;;27.60;91.40;;;;;;5085444;28;20094;-46
2021/09/09 07:14:20;;;;;;;1.13;0.40;;;27.60;91.40;;;;;;5085026;28;20021;-47
2021/09/09 07:16:47;;;;;;;1.10;0.35;;;27.60;91.40;;;;;;5085083;28;20328;-51
2021/09/09 07:19:14;;;;;;;0.82;0.35;;;27.60;91.30;;;;;;5084887;28;20020;-43
2021/09/09 07:21:40;;;;;;;3.65;0.70;;;27.50;91.30;;;;;;5085080;28;20024;-45
2021/09/09 07:24:07;;;;;;;1.60;0.43;;;27.50;91.30;;;;;;5084651;28;20062;-44
2021/09/09 07:26:33;;;;;;;3.40;0.50;;;27.50;91.20;;;;;;5084977;28;20028;-44
2021/09/09 07:29:00;;;;;;;1.80;0.60;;;27.50;91.20;;;;;;5084707;28;20028;-43
2021/09/09 07:31:27;;;;;;;1.58;0.47;;;27.40;91.50;;;;;;5084786;28;20212;-42
2021/09/09 07:33:53;;;;;;;1.17;0.77;;;27.40;91.30;;;;;;5084609;28;20016;-44
2021/09/09 07:36:20;;;;;;;5.22;0.80;;;27.40;91.30;;;;;;5084394;28;20086;-45
2021/09/09 07:38:46;;;;;;;1.85;0.60;;;27.40;91.30;;;;;;5084522;28;20024;-49
2021/09/09 07:41:14;;;;;;;2.47;0.60;;;27.40;91.30;;;;;;5084620;28;20354;-44
2021/09/09 07:43:41;;;;;;;2.50;0.77;;;27.40;91.40;;;;;;5084452;28;20075;-43
2021/09/09 07:46:07;;;;;;;2.13;0.52;;;27.40;91.50;;;;;;5084541;28;20096;-42
2021/09/09 07:48:34;;;;;;;5.68;0.70;;;27.30;91.30;;;;;;5084386;28;20098;-45
2021/09/09 07:51:00;;;;;;;3.55;0.63;;;27.40;91.30;;;;;;5084665;28;20054;-44
2021/09/09 07:53:27;;;;;;;2.85;0.60;;;27.40;91.20;;;;;;5084297;28;20025;-48
2021/09/09 07:55:54;;;;;;;3.70;0.70;;;27.40;91.20;;;;;;5084128;28;20033;-46
2021/09/09 07:58:20;;;;;;;1.25;0.55;;;27.30;91.20;;;;;;5084159;28;20208;-44
2021/09/09 08:00:47;;;;;;;3.47;0.50;;;27.40;91.20;;;;;;5084225;28;20040;-50
2021/09/09 08:03:13;;;;;;;3.33;0.60;;;27.40;91.20;;;;;;5084055;28;20012;-46
2021/09/09 08:05:40;;;;;;;2.50;0.50;;;27.30;91.20;;;;;;5084143;28;20308;-45
2021/09/09 08:08:07;;;;;;;2.15;0.73;;;27.30;91.30;;;;;;5084231;28;20022;-46
2021/09/09 08:10:34;;;;;;;2.72;0.68;;;27.30;91.40;;;;;;5083712;28;20030;-47
2021/09/09 08:13:00;;;;;;;3.30;0.60;;;27.30;91.40;;;;;;5084025;28;20013;-50
2021/09/09 11:52:06;;;;;;;4.70;1.40;;;26.90;90.60;;;;;;5101270;28;20415;-56
2021/09/09 11:54:35;;;;;;;4.00;1.63;;;27.80;89.90;;;;;;5101170;28;20387;-57
2021/09/09 11:57:10;;;;;;;4.18;1.70;;;27.70;89.90;;;;;;5101219;28;20020;-55
2021/09/09 11:59:55;;;;;;;5.95;2.45;;;27.70;89.90;;;;;;5099878;28;20143;-56
2021/09/09 12:02:32;;;;;;;8.00;2.50;;;27.70;90.00;;;;;;5100972;28;20062;-55
2021/09/09 12:05:08;;;;;;;6.45;2.13;;;27.70;90.10;;;;;;5100945;28;20031;-58
2021/09/09 12:07:37;;;;;;;4.13;1.67;;;27.80;90.20;;;;;;5100779;28;20042;-58
2021/09/09 12:10:06;;;;;;;3.08;1.30;;;27.70;90.20;;;;;;5100729;28;20197;-57
2021/09/09 12:12:34;;;;;;;7.68;1.90;;;27.70;90.10;;;;;;5100779;28;20028;-57
2021/09/09 12:15:10;;;;;;;7.57;2.40;;;27.80;90.20;;;;;;5100748;28;20024;-57
2021/09/09 12:17:41;;;;;;;4.72;2.22;;;27.80;90.20;;;;;;5100616;28;20028;-60
2021/09/09 12:20:22;;;;;;;3.33;1.70;;;27.80;90.20;;;;;;5100507;28;20016;-54
2021/09/09 12:22:56;;;;;;;4.40;1.38;;;27.80;90.20;;;;;;5100634;28;20243;-56
2021/09/09 12:25:29;;;;;;;5.35;1.48;;;27.90;90.20;;;;;;5100707;28;20173;-55
2021/09/09 12:28:11;;;;;;;6.03;1.40;;;27.90;90.10;;;;;;5100297;28;20027;-55
2021/09/09 12:30:40;;;;;;;8.18;1.60;;;27.90;90.10;;;;;;5100590;28;20024;-53
2021/09/09 12:33:19;;;;;;;7.25;1.60;;;28.00;90.10;;;;;;5100085;28;20035;-54
2021/09/09 12:36:20;;;;;;;10.85;1.42;;;28.00;90.10;;;;;;5100582;28;20050;-56
2021/09/09 12:38:51;;;;;;;4.82;1.20;;;28.00;90.10;;;;;;5100178;28;20267;-56
2021/09/09 12:41:17;;;;;;;6.70;1.23;;;28.00;90.00;;;;;;5098355;28;20083;-52
2021/09/09 12:43:46;;;;;;;4.20;1.23;;;28.00;89.80;;;;;;5086760;28;20028;-56
2021/09/09 12:46:31;;;;;;;4.55;1.20;;;28.00;89.80;;;;;;5086942;28;20092;-56
2021/09/09 12:49:06;;;;;;;5.97;1.52;;;28.10;89.80;;;;;;5086411;28;20024;-58
2021/09/09 12:51:42;;;;;;;4.60;1.23;;;28.10;89.80;;;;;;5086141;28;20072;-57
2021/09/09 12:54:10;;;;;;;4.25;1.00;;;28.10;89.80;;;;;;5086321;28;20047;-56
2021/09/09 12:56:38;;;;;;;4.70;1.40;;;28.10;89.70;;;;;;5086952;28;20025;-55
2021/09/09 12:59:05;;;;;;;3.25;1.27;;;28.20;89.70;;;;;;5086426;28;20039;-58
2021/09/09 13:01:32;;;;;;;5.18;1.50;;;28.20;89.30;;;;;;5086599;28;20024;-56
2021/09/09 13:03:58;;;;;;;6.45;1.40;;;28.20;89.30;;;;;;5086399;28;20017;-57
2021/09/09 13:06:25;;;;;;;7.00;1.13;;;28.20;89.00;;;;;;5086144;28;20209;-55
2021/09/09 13:08:51;;;;;;;2.55;1.10;;;28.30;89.00;;;;;;5085943;28;20059;-57
2021/09/09 13:11:18;;;;;;;2.92;1.05;;;28.30;88.60;;;;;;5086604;28;20025;-55
2021/09/09 13:13:45;;;;;;;2.67;0.90;;;28.30;88.20;;;;;;5086075;28;20016;-57
2021/09/09 13:16:12;;;;;;;2.17;0.95;;;28.30;88.20;;;;;;5086317;28;20024;-57
2021/09/09 13:18:41;;;;;;;2.70;0.82;;;28.30;88.20;;;;;;5085947;28;20016;-54
2021/09/09 13:21:15;;;;;;;3.78;0.88;;;28.30;88.10;;;;;;5086474;28;20036;-55
2021/09/09 13:23:42;;;;;;;3.60;1.00;;;28.40;88.10;;;;;;5085912;28;20048;-56
2021/09/09 13:26:13;;;;;;;6.78;1.00;;;28.40;88.30;;;;;;5086282;28;20035;-56
2021/09/09 13:28:41;;;;;;;2.13;0.90;;;28.40;88.40;;;;;;5085791;28;20039;-57
2021/09/09 13:31:23;;;;;;;2.90;0.90;;;28.40;88.00;;;;;;5085986;28;20040;-55
2021/09/09 13:33:53;;;;;;;;;;;28.40;88.20;;;;;;5086154;28;20080;-54
2021/09/09 13:36:20;;;;;;;3.63;1.00;;;28.40;87.70;;;;;;5085960;28;19909;-54
2021/09/09 13:38:49;;;;;;;6.60;1.20;;;28.40;87.90;;;;;;5085624;28;20020;-54
2021/09/09 13:41:15;;;;;;;6.78;0.80;;;28.40;87.60;;;;;;5085862;28;20024;-52
2021/09/09 13:43:42;;;;;;;2.03;0.80;;;28.50;87.90;;;;;;5085323;28;20023;-55
2021/09/09 13:46:08;;;;;;;3.67;1.08;;;28.50;87.90;;;;;;5085515;28;20028;-53
2021/09/09 13:48:35;;;;;;;1.00;0.63;;;28.50;87.50;;;;;;5085301;28;20062;-57
2021/09/09 13:51:02;;;;;;;3.17;1.10;;;28.50;87.50;;;;;;5084956;28;20385;-54
2021/09/09 13:53:28;;;;;;;3.40;1.00;;;28.50;87.50;;;;;;5084341;28;20296;-54
2021/09/09 13:55:56;;;;;;;2.90;0.90;;;28.60;87.90;;;;;;5084599;28;20099;-52
2021/09/09 13:58:23;;;;;;;3.50;0.95;;;28.60;87.90;;;;;;5084979;28;20054;-53
2021/09/09 14:00:49;;;;;;;1.85;0.90;;;28.60;87.30;;;;;;5084165;28;20029;-52
2021/09/09 14:03:16;;;;;;;0.85;0.80;;;28.60;87.00;;;;;;5085093;28;20083;-55
2021/09/09 14:05:42;;;;;;;2.03;1.00;;;28.60;87.30;;;;;;5085373;28;20032;-55
2021/09/09 14:08:09;;;;;;;3.85;1.00;;;28.60;87.00;;;;;;5085033;28;20080;-54
2021/09/09 14:10:35;;;;;;;4.13;0.90;;;28.60;86.50;;;;;;5085116;28;20021;-53
2021/09/09 14:13:04;;;;;;;4.88;0.60;;;28.60;87.20;;;;;;5084775;28;20055;-52
2021/09/09 14:15:32;;;;;;;1.23;0.70;;;28.60;87.10;;;;;;5085042;28;20308;-56
2021/09/09 14:17:58;;;;;;;2.85;0.85;;;28.60;86.60;;;;;;5084912;28;20040;-51
2021/09/09 14:20:25;;;;;;;6.78;1.05;;;28.60;86.70;;;;;;5084719;28;20028;-55
2021/09/09 14:22:52;;;;;;;3.35;0.93;;;28.60;86.90;;;;;;5084121;28;20080;-54
2021/09/09 14:25:18;;;;;;;2.60;0.80;;;28.70;87.30;;;;;;5084782;28;20361;-53
2021/09/09 14:27:45;;;;;;;5.45;1.00;;;28.70;87.40;;;;;;5084387;28;20027;-49
2021/09/09 14:30:12;;;;;;;5.70;1.00;;;28.70;87.30;;;;;;5084421;28;20036;-44
2021/09/09 14:32:39;;;;;;;3.72;0.80;;;28.80;86.30;;;;;;5084579;28;20043;-48
2021/09/09 14:35:06;;;;;;;16.17;2.10;;;28.90;86.40;;;;;;5084438;28;20027;-50
2021/09/09 14:37:33;;;;;;;18.48;2.10;;;29.00;85.10;;;;;;5084240;28;20016;-52
2021/09/09 14:39:59;;;;;;;21.25;2.58;;;29.00;85.10;;;;;;5084396;28;20352;-51
2021/09/09 14:42:26;;;;;;;4.25;1.30;;;29.00;86.00;;;;;;5084015;28;20024;-51
2021/09/09 14:44:53;;;;;;;6.00;1.20;;;29.10;86.80;;;;;;5084038;28;20035;-54
2021/09/09 14:47:19;;;;;;;4.78;0.80;;;29.10;86.30;;;;;;5084079;28;20023;-48
2021/09/09 14:49:46;;;;;;;5.18;1.00;;;29.20;86.60;;;;;;5083696;28;20100;-49
2021/09/09 14:52:12;;;;;;;2.60;0.60;;;29.20;86.40;;;;;;5084175;28;20026;-52
2021/09/09 14:54:43;;;;;;;3.63;0.70;;;29.30;84.00;;;;;;5083993;28;20016;-52
2021/09/09 14:57:09;;;;;;;3.50;0.75;;;29.40;84.30;;;;;;5083762;28;20023;-50
2021/09/09 14:59:36;;;;;;;2.38;0.68;;;29.30;84.50;;;;;;5083682;28;20021;-50
2021/09/09 15:02:02;;;;;;;2.45;0.70;;;29.40;85.40;;;;;;5083618;28;20326;-51
2021/09/09 15:04:29;;;;;;;2.38;0.80;;;29.50;84.50;;;;;;5083033;28;20213;-56
2021/09/09 15:06:56;;;;;;;2.17;0.73;;;29.60;84.00;;;;;;5082303;28;20024;-49
2021/09/09 15:09:22;;;;;;;5.10;0.80;;;29.60;84.60;;;;;;5083427;28;20061;-51
2021/09/09 15:11:49;;;;;;;2.00;0.65;;;29.70;82.90;;;;;;5083280;28;20051;-52
2021/09/09 15:14:16;;;;;;;3.30;0.80;;;29.70;83.00;;;;;;5083436;28;20024;-50
2021/09/09 15:16:43;;;;;;;0.75;0.60;;;29.70;82.90;;;;;;5084061;28;20012;-48
2021/09/09 15:19:10;;;;;;;1.02;0.57;;;29.60;83.40;;;;;;5083630;28;20020;-52
2021/09/09 15:21:38;;;;;;;2.97;0.60;;;29.60;84.00;;;;;;5082056;28;20092;-50
2021/09/09 15:24:05;;;;;;;2.72;0.90;;;29.70;83.10;;;;;;5083350;28;20080;-47
2021/09/09 15:26:32;;;;;;;2.15;0.60;;;29.70;84.40;;;;;;5083879;28;20425;-49
2021/09/09 15:28:59;;;;;;;1.85;0.65;;;29.70;82.50;;;;;;5081203;28;20046;-51
2021/09/09 15:31:25;;;;;;;1.90;0.50;;;29.80;82.40;;;;;;5083745;28;20024;-51
2021/09/09 15:33:52;;;;;;;2.65;0.80;;;29.80;83.40;;;;;;5082977;28;20020;-51
2021/09/09 15:36:18;;;;;;;2.22;0.77;;;29.80;83.10;;;;;;5082248;28;20092;-51
2021/09/09 15:38:45;;;;;;;2.08;0.80;;;29.80;83.10;;;;;;5083157;28;20018;-51
2021/09/09 15:41:12;;;;;;;5.75;0.82;;;29.80;83.20;;;;;;5083628;28;20034;-48
2021/09/09 15:43:38;;;;;;;1.73;1.25;;;29.90;84.00;;;;;;5080366;28;20246;-48
2021/09/09 15:46:05;;;;;;;2.28;1.33;;;29.80;84.40;;;;;;5083591;28;20203;-47
2021/09/09 15:48:31;;;;;;;2.30;1.33;;;29.90;84.10;;;;;;5083145;28;20058;-50
2021/09/09 15:50:58;;;;;;;2.70;1.27;;;29.80;84.60;;;;;;5083380;28;20047;-51
2021/09/09 15:53:25;;;;;;;1.65;1.42;;;29.80;85.90;;;;;;5083634;28;20024;-53
2021/09/09 15:55:52;;;;;;;1.58;1.10;;;29.90;85.30;;;;;;5083574;28;20091;-54
2021/09/09 15:58:18;;;;;;;2.78;1.50;;;29.90;84.90;;;;;;5082753;28;20043;-49
2021/09/09 16:00:45;;;;;;;1.88;1.30;;;29.90;84.90;;;;;;5083280;28;20059;-47
2021/09/09 16:03:11;;;;;;;2.03;1.27;;;29.90;84.70;;;;;;5083168;28;20080;-51
2021/09/09 16:05:40;;;;;;;2.20;1.50;;;29.90;85.10;;;;;;5083120;28;20024;-56
2021/09/09 16:08:07;;;;;;;3.13;1.38;;;29.90;85.10;;;;;;5083272;28;20044;-54
2021/09/09 16:10:33;;;;;;;2.20;1.23;;;29.90;84.90;;;;;;5083651;28;20025;-47
2021/09/09 16:13:00;;;;;;;3.42;1.05;;;30.00;85.20;;;;;;5083258;28;20020;-48
2021/09/09 16:15:27;;;;;;;5.82;1.50;;;30.00;86.10;;;;;;5083506;28;20020;-54
2021/09/09 16:17:56;;;;;;;5.85;2.13;;;30.10;85.80;;;;;;5085721;28;20212;-52
2021/09/09 16:20:23;;;;;;;13.23;2.70;;;30.10;86.00;;;;;;5087137;28;20077;-48
2021/09/09 16:22:49;;;;;;;12.18;2.92;;;30.00;86.10;;;;;;5087065;28;20232;-52
2021/09/09 16:25:19;;;;;;;14.52;2.60;;;30.00;86.00;;;;;;5087062;28;20099;-50
2021/09/09 16:27:46;;;;;;;20.30;3.40;;;30.00;86.10;;;;;;5086825;28;20070;-50
2021/09/09 16:30:12;;;;;;;15.63;3.30;;;30.00;86.10;;;;;;5087006;28;20024;-50
2021/09/09 16:32:39;;;;;;;13.30;3.00;;;30.00;86.30;;;;;;5086720;28;20216;-51
2021/09/09 16:35:06;;;;;;;9.75;2.55;;;30.00;86.30;;;;;;5085788;28;20092;-51
2021/09/09 16:37:33;;;;;;;6.55;2.10;;;30.00;86.40;;;;;;5086377;28;20012;-53
2021/09/09 16:39:59;;;;;;;6.53;1.90;;;30.00;87.00;;;;;;5086622;28;20035;-49
2021/09/09 16:42:26;;;;;;;6.28;2.03;;;30.00;86.70;;;;;;5084215;28;20031;-50
2021/09/09 16:44:52;;;;;;;31.20;4.35;;;30.00;86.20;;;;;;5085676;28;20074;-56
2021/09/09 16:47:19;;;;;;;13.88;2.92;;;30.10;86.90;;;;;;5085184;28;20032;-52
2021/09/09 16:49:45;;;;;;;34.70;4.22;;;30.00;86.50;;;;;;5085001;28;20024;-53
2021/09/09 16:52:12;;;;;;;27.15;3.70;;;30.10;86.70;;;;;;5085205;28;20012;-52
2021/09/09 16:54:39;;;;;;;8.52;2.30;;;30.10;86.20;;;;;;5085624;28;20193;-52
2021/09/09 16:57:07;;;;;;;53.00;4.20;;;30.10;85.60;;;;;;5085066;28;20083;-50
2021/09/09 16:59:41;;;;;;;7.07;2.05;;;30.10;85.70;;;;;;5085157;28;20016;-53